sensor_id;sensor_type;location;lat;lon;timestamp;P1;durP1;ratioP1;P2;durP2;ratioP2
40757;SDS011;26462;47.384;19.218;2023-04-25T00:01:02;2.03;;;0.80;;
40757;SDS011;26462;47.384;19.218;2023-04-25T00:03:31;1.95;;;0.70;;
40757;SDS011;26462;47.384;19.218;2023-04-25T00:05:59;1.83;;;0.70;;
40757;SDS011;26462;47.384;19.218;2023-04-25T00:08:29;2.05;;;0.70;;
40757;SDS011;26462;47.384;19.218;2023-04-25T00:10:57;2.22;;;0.55;;
40757;SDS011;26462;47.384;19.218;2023-04-25T00:13:24;2.45;;;0.80;;
40757;SDS011;26462;47.384;19.218;2023-04-25T00:15:52;2.22;;;0.45;;
40757;SDS011;26462;47.384;19.218;2023-04-25T00:18:19;1.23;;;0.60;;
40757;SDS011;26462;47.384;19.218;2023-04-25T00:20:46;1.33;;;0.73;;
40757;SDS011;26462;47.384;19.218;2023-04-25T00:23:14;1.23;;;0.50;;
40757;SDS011;26462;47.384;19.218;2023-04-25T00:25:44;1.08;;;0.63;;
40757;SDS011;26462;47.384;19.218;2023-04-25T00:28:12;1.23;;;0.50;;
40757;SDS011;26462;47.384;19.218;2023-04-25T00:30:40;1.25;;;0.75;;
40757;SDS011;26462;47.384;19.218;2023-04-25T00:33:07;1.00;;;0.52;;
40757;SDS011;26462;47.384;19.218;2023-04-25T00:35:35;1.65;;;0.70;;
40757;SDS011;26462;47.384;19.218;2023-04-25T00:38:02;1.20;;;0.60;;
40757;SDS011;26462;47.384;19.218;2023-04-25T00:40:29;2.20;;;0.50;;
40757;SDS011;26462;47.384;19.218;2023-04-25T00:42:57;2.10;;;0.60;;
40757;SDS011;26462;47.384;19.218;2023-04-25T00:45:27;1.30;;;0.55;;
40757;SDS011;26462;47.384;19.218;2023-04-25T00:47:56;1.70;;;0.60;;
40757;SDS011;26462;47.384;19.218;2023-04-25T00:50:24;1.58;;;0.80;;
40757;SDS011;26462;47.384;19.218;2023-04-25T00:52:51;1.77;;;0.70;;
40757;SDS011;26462;47.384;19.218;2023-04-25T00:55:18;1.88;;;0.82;;
40757;SDS011;26462;47.384;19.218;2023-04-25T00:57:46;1.70;;;0.80;;
40757;SDS011;26462;47.384;19.218;2023-04-25T01:00:13;2.03;;;0.73;;
40757;SDS011;26462;47.384;19.218;2023-04-25T01:02:42;1.73;;;0.70;;
40757;SDS011;26462;47.384;19.218;2023-04-25T01:05:11;1.25;;;0.80;;
40757;SDS011;26462;47.384;19.218;2023-04-25T01:07:38;2.83;;;1.00;;
40757;SDS011;26462;47.384;19.218;2023-04-25T01:10:07;2.08;;;0.90;;
40757;SDS011;26462;47.384;19.218;2023-04-25T01:12:36;1.38;;;0.60;;
40757;SDS011;26462;47.384;19.218;2023-04-25T01:15:04;1.52;;;0.90;;
40757;SDS011;26462;47.384;19.218;2023-04-25T01:17:31;1.90;;;0.82;;
40757;SDS011;26462;47.384;19.218;2023-04-25T01:20:02;1.50;;;0.93;;
40757;SDS011;26462;47.384;19.218;2023-04-25T01:22:31;1.70;;;1.17;;
40757;SDS011;26462;47.384;19.218;2023-04-25T01:24:59;1.73;;;0.90;;
40757;SDS011;26462;47.384;19.218;2023-04-25T01:27:27;2.40;;;1.13;;
40757;SDS011;26462;47.384;19.218;2023-04-25T01:29:54;2.03;;;1.20;;
40757;SDS011;26462;47.384;19.218;2023-04-25T01:32:23;1.17;;;0.88;;
40757;SDS011;26462;47.384;19.218;2023-04-25T01:34:50;2.47;;;1.20;;
40757;SDS011;26462;47.384;19.218;2023-04-25T01:37:18;2.55;;;1.08;;
40757;SDS011;26462;47.384;19.218;2023-04-25T01:39:46;1.95;;;1.20;;
40757;SDS011;26462;47.384;19.218;2023-04-25T01:42:13;2.28;;;1.40;;
40757;SDS011;26462;47.384;19.218;2023-04-25T01:44:40;2.70;;;1.40;;
40757;SDS011;26462;47.384;19.218;2023-04-25T01:47:07;2.35;;;1.15;;
40757;SDS011;26462;47.384;19.218;2023-04-25T01:49:35;4.10;;;1.67;;
40757;SDS011;26462;47.384;19.218;2023-04-25T01:52:02;3.72;;;1.60;;
40757;SDS011;26462;47.384;19.218;2023-04-25T01:54:29;1.92;;;1.08;;
40757;SDS011;26462;47.384;19.218;2023-04-25T01:56:57;2.97;;;1.17;;
40757;SDS011;26462;47.384;19.218;2023-04-25T01:59:24;2.05;;;1.25;;
40757;SDS011;26462;47.384;19.218;2023-04-25T02:02:03;1.63;;;1.05;;
40757;SDS011;26462;47.384;19.218;2023-04-25T02:04:32;3.15;;;1.50;;
40757;SDS011;26462;47.384;19.218;2023-04-25T02:07:00;2.67;;;1.60;;
40757;SDS011;26462;47.384;19.218;2023-04-25T02:09:36;3.08;;;1.75;;
40757;SDS011;26462;47.384;19.218;2023-04-25T02:12:05;4.15;;;1.50;;
40757;SDS011;26462;47.384;19.218;2023-04-25T02:14:51;2.40;;;1.50;;
40757;SDS011;26462;47.384;19.218;2023-04-25T02:17:45;2.78;;;1.85;;
40757;SDS011;26462;47.384;19.218;2023-04-25T02:20:12;3.25;;;1.73;;
40757;SDS011;26462;47.384;19.218;2023-04-25T02:22:39;3.00;;;1.50;;
40757;SDS011;26462;47.384;19.218;2023-04-25T02:25:06;4.55;;;1.85;;
40757;SDS011;26462;47.384;19.218;2023-04-25T02:27:35;3.13;;;1.40;;
40757;SDS011;26462;47.384;19.218;2023-04-25T02:30:02;3.60;;;1.50;;
40757;SDS011;26462;47.384;19.218;2023-04-25T02:32:32;2.25;;;1.15;;
40757;SDS011;26462;47.384;19.218;2023-04-25T02:35:01;2.78;;;1.50;;
40757;SDS011;26462;47.384;19.218;2023-04-25T02:37:30;4.00;;;1.27;;
40757;SDS011;26462;47.384;19.218;2023-04-25T02:39:58;2.13;;;1.60;;
40757;SDS011;26462;47.384;19.218;2023-04-25T02:42:26;3.03;;;1.50;;
40757;SDS011;26462;47.384;19.218;2023-04-25T02:44:53;3.65;;;1.45;;
40757;SDS011;26462;47.384;19.218;2023-04-25T02:47:20;2.13;;;1.40;;
40757;SDS011;26462;47.384;19.218;2023-04-25T02:49:48;3.80;;;1.80;;
40757;SDS011;26462;47.384;19.218;2023-04-25T02:52:15;2.65;;;1.60;;
40757;SDS011;26462;47.384;19.218;2023-04-25T02:54:47;3.05;;;1.88;;
40757;SDS011;26462;47.384;19.218;2023-04-25T02:57:14;2.53;;;1.10;;
40757;SDS011;26462;47.384;19.218;2023-04-25T02:59:42;2.72;;;1.10;;
40757;SDS011;26462;47.384;19.218;2023-04-25T03:02:09;2.28;;;1.00;;
40757;SDS011;26462;47.384;19.218;2023-04-25T03:04:36;4.68;;;1.50;;
40757;SDS011;26462;47.384;19.218;2023-04-25T03:07:05;2.78;;;1.15;;
40757;SDS011;26462;47.384;19.218;2023-04-25T03:09:32;1.60;;;0.98;;
40757;SDS011;26462;47.384;19.218;2023-04-25T03:11:59;1.55;;;1.05;;
40757;SDS011;26462;47.384;19.218;2023-04-25T03:14:27;1.67;;;1.00;;
40757;SDS011;26462;47.384;19.218;2023-04-25T03:16:54;5.18;;;1.00;;
40757;SDS011;26462;47.384;19.218;2023-04-25T03:19:21;1.38;;;0.88;;
40757;SDS011;26462;47.384;19.218;2023-04-25T03:21:48;2.60;;;0.90;;
40757;SDS011;26462;47.384;19.218;2023-04-25T03:24:15;2.58;;;0.60;;
40757;SDS011;26462;47.384;19.218;2023-04-25T03:26:42;1.98;;;1.20;;
40757;SDS011;26462;47.384;19.218;2023-04-25T03:29:09;2.88;;;0.88;;
40757;SDS011;26462;47.384;19.218;2023-04-25T03:31:38;2.03;;;0.82;;
40757;SDS011;26462;47.384;19.218;2023-04-25T03:34:05;2.53;;;1.08;;
40757;SDS011;26462;47.384;19.218;2023-04-25T03:36:32;2.22;;;1.30;;
40757;SDS011;26462;47.384;19.218;2023-04-25T03:38:59;3.75;;;1.40;;
40757;SDS011;26462;47.384;19.218;2023-04-25T03:41:28;2.67;;;1.55;;
40757;SDS011;26462;47.384;19.218;2023-04-25T03:44:01;2.40;;;1.35;;
40757;SDS011;26462;47.384;19.218;2023-04-25T03:46:29;3.28;;;1.23;;
40757;SDS011;26462;47.384;19.218;2023-04-25T03:48:56;2.50;;;1.30;;
40757;SDS011;26462;47.384;19.218;2023-04-25T03:51:30;1.50;;;1.10;;
40757;SDS011;26462;47.384;19.218;2023-04-25T03:53:57;2.47;;;1.35;;
40757;SDS011;26462;47.384;19.218;2023-04-25T03:56:48;2.38;;;1.15;;
40757;SDS011;26462;47.384;19.218;2023-04-25T03:59:18;1.52;;;0.85;;
40757;SDS011;26462;47.384;19.218;2023-04-25T04:01:45;1.25;;;0.98;;
40757;SDS011;26462;47.384;19.218;2023-04-25T04:04:13;1.92;;;1.25;;
40757;SDS011;26462;47.384;19.218;2023-04-25T04:06:41;1.65;;;1.10;;
40757;SDS011;26462;47.384;19.218;2023-04-25T04:09:14;1.15;;;0.75;;
40757;SDS011;26462;47.384;19.218;2023-04-25T04:11:43;2.22;;;1.13;;
40757;SDS011;26462;47.384;19.218;2023-04-25T04:14:10;2.47;;;1.42;;
40757;SDS011;26462;47.384;19.218;2023-04-25T04:16:41;1.20;;;0.70;;
40757;SDS011;26462;47.384;19.218;2023-04-25T04:19:08;3.03;;;1.23;;
40757;SDS011;26462;47.384;19.218;2023-04-25T04:21:37;4.15;;;1.10;;
40757;SDS011;26462;47.384;19.218;2023-04-25T04:24:04;1.92;;;0.80;;
40757;SDS011;26462;47.384;19.218;2023-04-25T04:26:44;3.47;;;1.33;;
40757;SDS011;26462;47.384;19.218;2023-04-25T04:29:35;2.22;;;1.50;;
40757;SDS011;26462;47.384;19.218;2023-04-25T04:32:12;2.55;;;1.30;;
40757;SDS011;26462;47.384;19.218;2023-04-25T04:34:41;2.28;;;1.23;;
40757;SDS011;26462;47.384;19.218;2023-04-25T04:37:09;2.42;;;1.10;;
40757;SDS011;26462;47.384;19.218;2023-04-25T04:39:36;2.50;;;1.02;;
40757;SDS011;26462;47.384;19.218;2023-04-25T04:42:16;2.00;;;1.20;;
40757;SDS011;26462;47.384;19.218;2023-04-25T04:45:10;2.10;;;1.40;;
40757;SDS011;26462;47.384;19.218;2023-04-25T04:47:44;2.10;;;1.23;;
40757;SDS011;26462;47.384;19.218;2023-04-25T04:50:24;2.47;;;1.38;;
40757;SDS011;26462;47.384;19.218;2023-04-25T04:53:19;4.05;;;1.25;;
40757;SDS011;26462;47.384;19.218;2023-04-25T04:56:04;2.60;;;1.13;;
40757;SDS011;26462;47.384;19.218;2023-04-25T04:58:47;2.92;;;1.80;;
40757;SDS011;26462;47.384;19.218;2023-04-25T05:01:34;2.17;;;1.20;;
40757;SDS011;26462;47.384;19.218;2023-04-25T05:04:41;3.97;;;1.40;;
40757;SDS011;26462;47.384;19.218;2023-04-25T05:07:29;3.38;;;1.60;;
40757;SDS011;26462;47.384;19.218;2023-04-25T05:10:07;2.53;;;1.02;;
40757;SDS011;26462;47.384;19.218;2023-04-25T05:12:40;2.80;;;1.40;;
40757;SDS011;26462;47.384;19.218;2023-04-25T05:15:26;2.50;;;1.20;;
40757;SDS011;26462;47.384;19.218;2023-04-25T05:18:10;2.33;;;0.90;;
40757;SDS011;26462;47.384;19.218;2023-04-25T05:20:37;7.28;;;1.88;;
40757;SDS011;26462;47.384;19.218;2023-04-25T05:23:23;3.22;;;1.02;;
40757;SDS011;26462;47.384;19.218;2023-04-25T05:26:06;2.08;;;1.17;;
40757;SDS011;26462;47.384;19.218;2023-04-25T05:28:59;2.15;;;1.45;;
40757;SDS011;26462;47.384;19.218;2023-04-25T05:31:45;2.15;;;1.20;;
40757;SDS011;26462;47.384;19.218;2023-04-25T05:34:15;2.20;;;1.48;;
40757;SDS011;26462;47.384;19.218;2023-04-25T05:36:52;1.55;;;1.17;;
40757;SDS011;26462;47.384;19.218;2023-04-25T05:39:19;3.20;;;1.13;;
40757;SDS011;26462;47.384;19.218;2023-04-25T05:42:22;2.08;;;1.20;;
40757;SDS011;26462;47.384;19.218;2023-04-25T05:44:52;2.35;;;1.35;;
40757;SDS011;26462;47.384;19.218;2023-04-25T05:47:54;2.88;;;1.60;;
40757;SDS011;26462;47.384;19.218;2023-04-25T05:50:57;4.18;;;1.70;;
40757;SDS011;26462;47.384;19.218;2023-04-25T05:53:54;2.13;;;0.95;;
40757;SDS011;26462;47.384;19.218;2023-04-25T05:56:21;2.65;;;1.17;;
40757;SDS011;26462;47.384;19.218;2023-04-25T05:58:51;2.60;;;1.20;;
40757;SDS011;26462;47.384;19.218;2023-04-25T06:01:18;3.08;;;1.20;;
40757;SDS011;26462;47.384;19.218;2023-04-25T06:03:45;2.63;;;1.13;;
40757;SDS011;26462;47.384;19.218;2023-04-25T06:06:13;2.90;;;1.17;;
40757;SDS011;26462;47.384;19.218;2023-04-25T06:08:40;6.75;;;1.60;;
40757;SDS011;26462;47.384;19.218;2023-04-25T06:11:10;2.63;;;1.25;;
40757;SDS011;26462;47.384;19.218;2023-04-25T06:13:37;3.78;;;1.30;;
40757;SDS011;26462;47.384;19.218;2023-04-25T06:16:05;3.55;;;1.58;;
40757;SDS011;26462;47.384;19.218;2023-04-25T06:18:32;2.20;;;1.45;;
40757;SDS011;26462;47.384;19.218;2023-04-25T06:21:00;3.35;;;1.60;;
40757;SDS011;26462;47.384;19.218;2023-04-25T06:23:27;2.72;;;1.60;;
40757;SDS011;26462;47.384;19.218;2023-04-25T06:26:05;2.75;;;1.40;;
40757;SDS011;26462;47.384;19.218;2023-04-25T06:28:35;3.58;;;2.17;;
40757;SDS011;26462;47.384;19.218;2023-04-25T06:31:03;3.75;;;2.33;;
40757;SDS011;26462;47.384;19.218;2023-04-25T06:33:30;3.38;;;2.33;;
40757;SDS011;26462;47.384;19.218;2023-04-25T06:35:58;4.93;;;3.17;;
40757;SDS011;26462;47.384;19.218;2023-04-25T06:38:28;3.45;;;2.60;;
40757;SDS011;26462;47.384;19.218;2023-04-25T06:40:56;5.78;;;2.95;;
40757;SDS011;26462;47.384;19.218;2023-04-25T06:43:26;5.57;;;2.50;;
40757;SDS011;26462;47.384;19.218;2023-04-25T06:45:55;4.13;;;3.42;;
40757;SDS011;26462;47.384;19.218;2023-04-25T06:48:26;4.85;;;3.38;;
40757;SDS011;26462;47.384;19.218;2023-04-25T06:50:54;6.13;;;3.30;;
40757;SDS011;26462;47.384;19.218;2023-04-25T06:53:22;4.20;;;2.78;;
40757;SDS011;26462;47.384;19.218;2023-04-25T06:55:55;4.88;;;3.00;;
40757;SDS011;26462;47.384;19.218;2023-04-25T06:58:24;6.32;;;3.20;;
40757;SDS011;26462;47.384;19.218;2023-04-25T07:01:06;5.97;;;2.80;;
40757;SDS011;26462;47.384;19.218;2023-04-25T07:03:33;6.53;;;4.07;;
40757;SDS011;26462;47.384;19.218;2023-04-25T07:06:06;5.13;;;3.53;;
40757;SDS011;26462;47.384;19.218;2023-04-25T07:08:33;5.93;;;3.75;;
40757;SDS011;26462;47.384;19.218;2023-04-25T07:11:01;4.90;;;3.25;;
40757;SDS011;26462;47.384;19.218;2023-04-25T07:13:28;4.85;;;3.85;;
40757;SDS011;26462;47.384;19.218;2023-04-25T07:15:55;6.63;;;3.83;;
40757;SDS011;26462;47.384;19.218;2023-04-25T07:18:23;6.72;;;3.65;;
40757;SDS011;26462;47.384;19.218;2023-04-25T07:20:51;4.68;;;3.53;;
40757;SDS011;26462;47.384;19.218;2023-04-25T07:23:18;6.55;;;3.50;;
40757;SDS011;26462;47.384;19.218;2023-04-25T07:25:46;7.47;;;3.90;;
40757;SDS011;26462;47.384;19.218;2023-04-25T07:28:18;5.20;;;3.25;;
40757;SDS011;26462;47.384;19.218;2023-04-25T07:30:46;6.47;;;3.40;;
40757;SDS011;26462;47.384;19.218;2023-04-25T07:33:13;12.30;;;3.72;;
40757;SDS011;26462;47.384;19.218;2023-04-25T07:35:41;7.15;;;3.83;;
40757;SDS011;26462;47.384;19.218;2023-04-25T07:38:08;6.00;;;3.67;;
40757;SDS011;26462;47.384;19.218;2023-04-25T07:40:37;5.00;;;3.47;;
40757;SDS011;26462;47.384;19.218;2023-04-25T07:43:06;4.82;;;3.47;;
40757;SDS011;26462;47.384;19.218;2023-04-25T07:45:44;6.65;;;3.60;;
40757;SDS011;26462;47.384;19.218;2023-04-25T07:48:16;7.75;;;4.30;;
40757;SDS011;26462;47.384;19.218;2023-04-25T07:50:46;3.80;;;3.40;;
40757;SDS011;26462;47.384;19.218;2023-04-25T07:53:13;4.88;;;3.63;;
40757;SDS011;26462;47.384;19.218;2023-04-25T07:55:50;5.22;;;3.58;;
40757;SDS011;26462;47.384;19.218;2023-04-25T07:58:19;3.92;;;3.13;;
40757;SDS011;26462;47.384;19.218;2023-04-25T08:00:52;4.60;;;3.38;;
40757;SDS011;26462;47.384;19.218;2023-04-25T08:03:40;5.10;;;2.78;;
40757;SDS011;26462;47.384;19.218;2023-04-25T08:06:18;4.78;;;2.80;;
40757;SDS011;26462;47.384;19.218;2023-04-25T08:08:58;8.65;;;3.10;;
40757;SDS011;26462;47.384;19.218;2023-04-25T08:11:32;3.67;;;2.40;;
40757;SDS011;26462;47.384;19.218;2023-04-25T08:14:00;5.10;;;2.65;;
40757;SDS011;26462;47.384;19.218;2023-04-25T08:16:27;5.15;;;3.17;;
40757;SDS011;26462;47.384;19.218;2023-04-25T08:18:55;5.72;;;3.25;;
40757;SDS011;26462;47.384;19.218;2023-04-25T08:21:22;4.68;;;3.03;;
40757;SDS011;26462;47.384;19.218;2023-04-25T08:23:51;3.97;;;2.10;;
40757;SDS011;26462;47.384;19.218;2023-04-25T08:26:31;3.05;;;2.45;;
40757;SDS011;26462;47.384;19.218;2023-04-25T08:29:01;3.45;;;2.33;;
40757;SDS011;26462;47.384;19.218;2023-04-25T08:31:28;2.50;;;2.17;;
40757;SDS011;26462;47.384;19.218;2023-04-25T08:33:58;2.78;;;2.03;;
40757;SDS011;26462;47.384;19.218;2023-04-25T08:36:52;3.10;;;2.08;;
40757;SDS011;26462;47.384;19.218;2023-04-25T08:39:28;3.40;;;1.70;;
40757;SDS011;26462;47.384;19.218;2023-04-25T08:42:16;2.63;;;1.77;;
40757;SDS011;26462;47.384;19.218;2023-04-25T08:44:45;2.70;;;1.90;;
40757;SDS011;26462;47.384;19.218;2023-04-25T08:47:14;2.03;;;1.27;;
40757;SDS011;26462;47.384;19.218;2023-04-25T08:49:47;2.45;;;1.60;;
40757;SDS011;26462;47.384;19.218;2023-04-25T08:52:17;3.17;;;1.10;;
40757;SDS011;26462;47.384;19.218;2023-04-25T08:54:50;2.38;;;1.05;;
40757;SDS011;26462;47.384;19.218;2023-04-25T08:57:19;2.22;;;1.40;;
40757;SDS011;26462;47.384;19.218;2023-04-25T08:59:49;3.00;;;1.33;;
40757;SDS011;26462;47.384;19.218;2023-04-25T09:02:18;2.00;;;1.10;;
40757;SDS011;26462;47.384;19.218;2023-04-25T09:04:49;3.25;;;1.10;;
40757;SDS011;26462;47.384;19.218;2023-04-25T09:07:17;1.98;;;1.35;;
40757;SDS011;26462;47.384;19.218;2023-04-25T09:09:48;3.13;;;1.00;;
40757;SDS011;26462;47.384;19.218;2023-04-25T09:12:18;2.05;;;1.13;;
40757;SDS011;26462;47.384;19.218;2023-04-25T09:17:54;3.22;;;1.33;;
40757;SDS011;26462;47.384;19.218;2023-04-25T09:20:24;3.50;;;0.80;;
40757;SDS011;26462;47.384;19.218;2023-04-25T09:23:02;2.10;;;1.17;;
40757;SDS011;26462;47.384;19.218;2023-04-25T09:25:35;3.55;;;1.60;;
40757;SDS011;26462;47.384;19.218;2023-04-25T09:28:07;1.75;;;1.27;;
40757;SDS011;26462;47.384;19.218;2023-04-25T09:30:34;2.40;;;1.85;;
40757;SDS011;26462;47.384;19.218;2023-04-25T09:33:10;6.35;;;1.95;;
40757;SDS011;26462;47.384;19.218;2023-04-25T09:35:42;2.07;;;1.23;;
40757;SDS011;26462;47.384;19.218;2023-04-25T09:38:18;2.72;;;1.73;;
40757;SDS011;26462;47.384;19.218;2023-04-25T09:40:56;2.15;;;1.60;;
40757;SDS011;26462;47.384;19.218;2023-04-25T09:43:45;3.78;;;1.10;;
40757;SDS011;26462;47.384;19.218;2023-04-25T09:46:14;2.22;;;1.90;;
40757;SDS011;26462;47.384;19.218;2023-04-25T09:48:50;2.92;;;1.63;;
40757;SDS011;26462;47.384;19.218;2023-04-25T09:51:25;3.20;;;2.17;;
40757;SDS011;26462;47.384;19.218;2023-04-25T09:53:56;1.95;;;1.30;;
40757;SDS011;26462;47.384;19.218;2023-04-25T09:56:35;1.33;;;1.08;;
40757;SDS011;26462;47.384;19.218;2023-04-25T09:59:05;1.75;;;1.10;;
40757;SDS011;26462;47.384;19.218;2023-04-25T10:01:36;1.48;;;0.80;;
40757;SDS011;26462;47.384;19.218;2023-04-25T10:04:24;1.77;;;1.10;;
40757;SDS011;26462;47.384;19.218;2023-04-25T10:07:10;2.13;;;0.70;;
40757;SDS011;26462;47.384;19.218;2023-04-25T10:09:38;1.20;;;0.70;;
40757;SDS011;26462;47.384;19.218;2023-04-25T10:12:07;1.35;;;0.70;;
40757;SDS011;26462;47.384;19.218;2023-04-25T10:14:35;1.65;;;0.60;;
40757;SDS011;26462;47.384;19.218;2023-04-25T10:17:02;1.25;;;0.47;;
40757;SDS011;26462;47.384;19.218;2023-04-25T10:19:30;1.08;;;0.40;;
40757;SDS011;26462;47.384;19.218;2023-04-25T10:24:30;0.70;;;0.30;;
40757;SDS011;26462;47.384;19.218;2023-04-25T10:26:58;0.70;;;0.28;;
40757;SDS011;26462;47.384;19.218;2023-04-25T10:29:26;0.50;;;0.30;;
40757;SDS011;26462;47.384;19.218;2023-04-25T10:31:53;1.13;;;0.30;;
40757;SDS011;26462;47.384;19.218;2023-04-25T10:34:37;1.35;;;0.50;;
40757;SDS011;26462;47.384;19.218;2023-04-25T10:37:08;1.88;;;0.20;;
40757;SDS011;26462;47.384;19.218;2023-04-25T10:39:38;0.52;;;0.20;;
40757;SDS011;26462;47.384;19.218;2023-04-25T10:42:07;1.17;;;0.28;;
40757;SDS011;26462;47.384;19.218;2023-04-25T10:44:35;1.02;;;0.20;;
40757;SDS011;26462;47.384;19.218;2023-04-25T10:47:06;0.90;;;0.22;;
40757;SDS011;26462;47.384;19.218;2023-04-25T10:49:38;0.80;;;0.20;;
40757;SDS011;26462;47.384;19.218;2023-04-25T10:54:55;1.08;;;0.40;;
40757;SDS011;26462;47.384;19.218;2023-04-25T10:57:42;2.88;;;0.60;;
40757;SDS011;26462;47.384;19.218;2023-04-25T11:00:16;0.70;;;0.30;;
40757;SDS011;26462;47.384;19.218;2023-04-25T11:02:45;0.55;;;0.20;;
40757;SDS011;26462;47.384;19.218;2023-04-25T11:08:12;0.43;;;0.10;;
40757;SDS011;26462;47.384;19.218;2023-04-25T11:10:44;0.60;;;0.20;;
40757;SDS011;26462;47.384;19.218;2023-04-25T11:13:11;0.30;;;0.10;;
40757;SDS011;26462;47.384;19.218;2023-04-25T11:15:38;0.63;;;0.13;;
40757;SDS011;26462;47.384;19.218;2023-04-25T11:18:06;2.47;;;0.32;;
40757;SDS011;26462;47.384;19.218;2023-04-25T11:20:35;1.15;;;0.20;;
40757;SDS011;26462;47.384;19.218;2023-04-25T11:23:02;0.40;;;0.10;;
40757;SDS011;26462;47.384;19.218;2023-04-25T11:25:30;0.52;;;0.13;;
40757;SDS011;26462;47.384;19.218;2023-04-25T11:27:59;1.30;;;0.10;;
40757;SDS011;26462;47.384;19.218;2023-04-25T11:30:29;0.73;;;0.10;;
40757;SDS011;26462;47.384;19.218;2023-04-25T11:32:59;0.98;;;0.13;;
40757;SDS011;26462;47.384;19.218;2023-04-25T11:35:26;0.20;;;0.10;;
40757;SDS011;26462;47.384;19.218;2023-04-25T11:37:53;4.25;;;0.10;;
40757;SDS011;26462;47.384;19.218;2023-04-25T11:40:21;0.10;;;0.00;;
40757;SDS011;26462;47.384;19.218;2023-04-25T11:42:48;0.40;;;0.00;;
40757;SDS011;26462;47.384;19.218;2023-04-25T11:45:15;1.55;;;0.00;;
40757;SDS011;26462;47.384;19.218;2023-04-25T11:47:42;4.43;;;0.35;;
40757;SDS011;26462;47.384;19.218;2023-04-25T11:50:10;1.55;;;0.10;;
40757;SDS011;26462;47.384;19.218;2023-04-25T11:52:38;0.57;;;0.15;;
40757;SDS011;26462;47.384;19.218;2023-04-25T11:55:10;0.10;;;0.00;;
40757;SDS011;26462;47.384;19.218;2023-04-25T11:57:44;0.20;;;0.00;;
40757;SDS011;26462;47.384;19.218;2023-04-25T12:00:14;0.73;;;0.00;;
40757;SDS011;26462;47.384;19.218;2023-04-25T12:02:50;0.98;;;0.10;;
40757;SDS011;26462;47.384;19.218;2023-04-25T12:05:20;4.68;;;0.22;;
40757;SDS011;26462;47.384;19.218;2023-04-25T12:07:52;1.30;;;0.10;;
40757;SDS011;26462;47.384;19.218;2023-04-25T12:10:20;0.28;;;0.00;;
40757;SDS011;26462;47.384;19.218;2023-04-25T12:12:48;0.60;;;0.00;;
40757;SDS011;26462;47.384;19.218;2023-04-25T12:15:16;1.40;;;0.20;;
40757;SDS011;26462;47.384;19.218;2023-04-25T12:17:51;1.02;;;0.00;;
40757;SDS011;26462;47.384;19.218;2023-04-25T12:20:19;2.20;;;0.28;;
40757;SDS011;26462;47.384;19.218;2023-04-25T12:22:50;2.70;;;0.85;;
40757;SDS011;26462;47.384;19.218;2023-04-25T12:30:52;0.95;;;0.10;;
40757;SDS011;26462;47.384;19.218;2023-04-25T12:33:19;1.15;;;0.10;;
40757;SDS011;26462;47.384;19.218;2023-04-25T12:35:46;0.57;;;0.00;;
40757;SDS011;26462;47.384;19.218;2023-04-25T12:38:21;0.35;;;0.10;;
40757;SDS011;26462;47.384;19.218;2023-04-25T12:40:53;2.17;;;0.17;;
40757;SDS011;26462;47.384;19.218;2023-04-25T12:43:20;0.20;;;0.10;;
40757;SDS011;26462;47.384;19.218;2023-04-25T12:45:49;2.85;;;0.20;;
40757;SDS011;26462;47.384;19.218;2023-04-25T12:48:20;1.38;;;0.22;;
40757;SDS011;26462;47.384;19.218;2023-04-25T12:50:47;0.40;;;0.10;;
40757;SDS011;26462;47.384;19.218;2023-04-25T12:53:19;1.35;;;0.22;;
40757;SDS011;26462;47.384;19.218;2023-04-25T12:55:47;0.50;;;0.20;;
40757;SDS011;26462;47.384;19.218;2023-04-25T12:58:15;2.40;;;0.40;;
40757;SDS011;26462;47.384;19.218;2023-04-25T13:00:44;1.77;;;0.20;;
40757;SDS011;26462;47.384;19.218;2023-04-25T13:03:12;0.73;;;0.10;;
40757;SDS011;26462;47.384;19.218;2023-04-25T13:05:58;0.30;;;0.10;;
40757;SDS011;26462;47.384;19.218;2023-04-25T13:08:26;0.50;;;0.30;;
40757;SDS011;26462;47.384;19.218;2023-04-25T13:10:53;1.15;;;0.10;;
40757;SDS011;26462;47.384;19.218;2023-04-25T13:13:20;0.73;;;0.20;;
40757;SDS011;26462;47.384;19.218;2023-04-25T13:15:47;2.72;;;0.20;;
40757;SDS011;26462;47.384;19.218;2023-04-25T13:18:14;1.00;;;0.20;;
40757;SDS011;26462;47.384;19.218;2023-04-25T13:20:42;0.20;;;0.03;;
40757;SDS011;26462;47.384;19.218;2023-04-25T13:23:09;1.23;;;0.10;;
40757;SDS011;26462;47.384;19.218;2023-04-25T13:25:36;0.40;;;0.10;;
40757;SDS011;26462;47.384;19.218;2023-04-25T13:28:03;1.02;;;0.30;;
40757;SDS011;26462;47.384;19.218;2023-04-25T13:30:31;0.60;;;0.20;;
40757;SDS011;26462;47.384;19.218;2023-04-25T13:32:58;1.60;;;0.30;;
40757;SDS011;26462;47.384;19.218;2023-04-25T13:35:30;1.57;;;0.30;;
40757;SDS011;26462;47.384;19.218;2023-04-25T13:37:57;2.47;;;0.30;;
40757;SDS011;26462;47.384;19.218;2023-04-25T13:40:24;1.67;;;0.63;;
40757;SDS011;26462;47.384;19.218;2023-04-25T13:42:51;3.03;;;1.38;;
40757;SDS011;26462;47.384;19.218;2023-04-25T13:45:19;2.75;;;0.30;;
40757;SDS011;26462;47.384;19.218;2023-04-25T13:47:46;5.07;;;4.10;;
40757;SDS011;26462;47.384;19.218;2023-04-25T13:50:13;0.30;;;0.10;;
40757;SDS011;26462;47.384;19.218;2023-04-25T13:52:42;2.92;;;0.43;;
40757;SDS011;26462;47.384;19.218;2023-04-25T13:55:09;0.40;;;0.13;;
40757;SDS011;26462;47.384;19.218;2023-04-25T13:57:37;1.65;;;0.30;;
40757;SDS011;26462;47.384;19.218;2023-04-25T14:00:07;1.17;;;0.80;;
40757;SDS011;26462;47.384;19.218;2023-04-25T14:02:35;0.47;;;0.20;;
40757;SDS011;26462;47.384;19.218;2023-04-25T14:05:03;1.27;;;0.20;;
40757;SDS011;26462;47.384;19.218;2023-04-25T14:07:33;0.40;;;0.20;;
40757;SDS011;26462;47.384;19.218;2023-04-25T14:10:01;0.65;;;0.20;;
40757;SDS011;26462;47.384;19.218;2023-04-25T14:12:29;0.52;;;0.17;;
40757;SDS011;26462;47.384;19.218;2023-04-25T14:14:56;1.00;;;0.20;;
40757;SDS011;26462;47.384;19.218;2023-04-25T14:17:23;2.30;;;0.47;;
40757;SDS011;26462;47.384;19.218;2023-04-25T14:19:50;0.60;;;0.28;;
40757;SDS011;26462;47.384;19.218;2023-04-25T14:22:17;0.52;;;0.20;;
40757;SDS011;26462;47.384;19.218;2023-04-25T14:24:45;0.50;;;0.13;;
40757;SDS011;26462;47.384;19.218;2023-04-25T14:27:12;0.45;;;0.30;;
40757;SDS011;26462;47.384;19.218;2023-04-25T14:29:39;0.35;;;0.10;;
40757;SDS011;26462;47.384;19.218;2023-04-25T14:32:06;1.85;;;0.10;;
40757;SDS011;26462;47.384;19.218;2023-04-25T14:34:33;0.40;;;0.15;;
40757;SDS011;26462;47.384;19.218;2023-04-25T14:37:00;0.75;;;0.22;;
40757;SDS011;26462;47.384;19.218;2023-04-25T14:39:28;1.25;;;0.30;;
40757;SDS011;26462;47.384;19.218;2023-04-25T14:41:55;0.90;;;0.20;;
40757;SDS011;26462;47.384;19.218;2023-04-25T14:44:22;0.80;;;0.30;;
40757;SDS011;26462;47.384;19.218;2023-04-25T14:46:49;0.43;;;0.20;;
40757;SDS011;26462;47.384;19.218;2023-04-25T14:49:18;1.35;;;0.20;;
40757;SDS011;26462;47.384;19.218;2023-04-25T14:51:45;1.15;;;0.28;;
40757;SDS011;26462;47.384;19.218;2023-04-25T14:54:12;1.08;;;0.20;;
40757;SDS011;26462;47.384;19.218;2023-04-25T14:56:39;0.77;;;0.30;;
40757;SDS011;26462;47.384;19.218;2023-04-25T14:59:06;0.85;;;0.30;;
40757;SDS011;26462;47.384;19.218;2023-04-25T15:01:33;0.68;;;0.30;;
40757;SDS011;26462;47.384;19.218;2023-04-25T15:04:01;1.08;;;0.45;;
40757;SDS011;26462;47.384;19.218;2023-04-25T15:06:30;1.42;;;0.20;;
40757;SDS011;26462;47.384;19.218;2023-04-25T15:08:57;1.45;;;0.20;;
40757;SDS011;26462;47.384;19.218;2023-04-25T15:11:24;1.70;;;0.20;;